Time;durP1;ratioP1;P1;durP2;ratioP2;P2;SDS_P1;SDS_P2;PMS_P1;PMS_P2;Temp;Humidity;BMP_temperature;BMP_pressure;BME280_temperature;BME280_humidity;BME280_pressure;Samples;Min_cycle;Max_cycle;Signal;HPM_P1;HPM_P2
2022/10/22 00:02:22;;;;;;;1.10;0.60;;;24.50;99.90;;;;;;4998663;28;20423;-86
2022/10/22 00:04:52;;;;;;;1.95;0.70;;;24.50;99.90;;;;;;5000319;28;20381;-90
2022/10/22 00:07:20;;;;;;;0.70;0.60;;;24.40;99.90;;;;;;4996673;28;20381;-90
2022/10/22 00:09:48;;;;;;;1.40;0.70;;;24.40;99.90;;;;;;4996881;28;20439;-89
2022/10/22 00:12:18;;;;;;;0.60;0.60;;;24.30;99.90;;;;;;5001454;28;20389;-87
2022/10/22 00:14:48;;;;;;;1.70;0.70;;;24.30;99.90;;;;;;4996973;28;20389;-88
2022/10/22 00:17:16;;;;;;;2.93;0.77;;;24.40;99.90;;;;;;5016883;28;20946;-87
2022/10/22 00:19:44;;;;;;;1.17;0.70;;;24.70;99.90;;;;;;5006105;28;20388;-90
2022/10/22 00:22:11;;;;;;;0.70;0.55;;;24.90;99.90;;;;;;4993998;28;20389;-89
2022/10/22 00:24:39;;;;;;;1.90;0.73;;;25.00;99.90;;;;;;4997977;28;20381;-89
2022/10/22 00:27:08;;;;;;;0.95;0.63;;;25.20;99.90;;;;;;4994351;28;20388;-88
2022/10/22 00:29:35;;;;;;;1.42;0.70;;;25.20;99.90;;;;;;4996198;28;20404;-88
2022/10/22 00:32:03;;;;;;;0.93;0.60;;;25.60;99.90;;;;;;4999519;28;20901;-88
2022/10/22 00:34:30;;;;;;;0.87;0.70;;;26.00;99.90;;;;;;4993506;28;20396;-87
2022/10/22 00:36:57;;;;;;;2.58;0.80;;;26.30;99.90;;;;;;4997196;28;20473;-90
2022/10/22 00:39:27;;;;;;;3.10;1.33;;;26.60;99.90;;;;;;5009148;28;20392;-91
2022/10/22 00:41:57;;;;;;;3.85;1.67;;;27.10;99.90;;;;;;4997654;28;20392;-89
2022/10/22 00:45:01;;;;;;;2.00;0.93;;;27.10;99.50;;;;;;4998494;28;20381;-91
2022/10/22 00:47:32;;;;;;;4.93;0.88;;;27.30;98.00;;;;;;4997519;28;20393;-93
2022/10/22 00:50:02;;;;;;;1.50;0.73;;;27.20;97.20;;;;;;5037831;28;20411;-90
2022/10/22 00:52:29;;;;;;;1.13;0.80;;;27.30;97.40;;;;;;5001295;28;20416;-92
2022/10/22 00:55:00;;;;;;;1.05;0.70;;;27.30;96.30;;;;;;4998484;28;20392;-87
2022/10/22 00:57:34;;;;;;;0.70;0.70;;;27.20;96.30;;;;;;4993609;28;20413;-89
2022/10/22 01:00:01;;;;;;;1.40;0.70;;;27.20;95.80;;;;;;4999353;28;20861;-88
2022/10/22 01:02:31;;;;;;;1.00;0.80;;;27.20;96.60;;;;;;5004218;28;20457;-89
2022/10/22 01:04:58;;;;;;;1.73;0.68;;;27.20;95.90;;;;;;5005669;28;20369;-88
2022/10/22 01:07:26;;;;;;;1.27;0.70;;;27.10;95.70;;;;;;5002956;28;20455;-90
2022/10/22 01:10:14;;;;;;;1.27;0.70;;;26.90;96.40;;;;;;5000028;28;20412;-88
2022/10/22 01:13:09;;;;;;;2.00;0.80;;;26.90;96.90;;;;;;4998935;28;20396;-90
2022/10/22 01:16:16;;;;;;;3.40;1.10;;;27.10;96.00;;;;;;5000570;28;20384;-91
2022/10/22 01:18:46;;;;;;;4.50;1.30;;;27.20;95.40;;;;;;4998910;28;20377;-86
2022/10/22 01:21:25;;;;;;;2.97;0.70;;;27.40;95.30;;;;;;4997708;28;20385;-87
2022/10/22 01:24:34;;;;;;;1.05;0.80;;;27.50;95.50;;;;;;5000612;28;20394;-84
2022/10/22 01:27:25;;;;;;;1.98;0.90;;;27.70;95.20;;;;;;4985717;28;20396;-88
2022/10/22 01:29:56;;;;;;;1.02;0.90;;;27.90;95.20;;;;;;4990381;28;20668;-88
2022/10/22 01:32:30;;;;;;;1.98;0.90;;;28.50;93.50;;;;;;4992293;28;20410;-85
2022/10/22 01:35:05;;;;;;;0.88;0.80;;;28.70;93.50;;;;;;4978831;28;20400;-87
2022/10/22 01:37:47;;;;;;;1.35;0.80;;;28.90;92.90;;;;;;4949816;28;20415;-85
2022/10/22 01:40:20;;;;;;;1.88;0.70;;;28.90;92.60;;;;;;4976851;28;20486;-89
2022/10/22 01:43:01;;;;;;;1.15;0.80;;;29.00;91.70;;;;;;4974466;28;20401;-86
2022/10/22 01:45:33;;;;;;;1.15;0.63;;;28.70;91.60;;;;;;4975088;28;20421;-88
2022/10/22 01:48:26;;;;;;;1.60;1.15;;;28.50;92.40;;;;;;4975118;28;20457;-90
2022/10/22 01:51:04;;;;;;;4.32;1.60;;;28.30;92.50;;;;;;4976964;28;20422;-84
2022/10/22 01:54:00;;;;;;;1.55;1.00;;;27.90;92.90;;;;;;4973426;28;20390;-82
2022/10/22 01:56:45;;;;;;;2.47;0.93;;;27.60;92.80;;;;;;4989847;28;20398;-93
2022/10/22 01:59:41;;;;;;;2.05;0.90;;;27.20;94.20;;;;;;5002348;28;20458;-93
2022/10/22 02:02:15;;;;;;;0.73;0.70;;;27.20;94.20;;;;;;5014388;28;20488;-92
2022/10/22 02:04:59;;;;;;;1.08;0.70;;;27.40;93.70;;;;;;5019176;28;20392;-92
2022/10/22 02:07:31;;;;;;;1.20;0.80;;;27.40;94.90;;;;;;4992863;28;20389;-89
2022/10/22 02:10:00;;;;;;;0.80;0.70;;;27.40;95.70;;;;;;5004558;28;20413;-90
2022/10/22 02:12:30;;;;;;;1.50;0.83;;;27.40;95.10;;;;;;4996026;28;20435;-88
2022/10/22 02:14:59;;;;;;;0.82;0.80;;;27.30;94.90;;;;;;4995372;28;20389;-91
2022/10/22 02:17:31;;;;;;;0.98;0.80;;;27.60;95.50;;;;;;4994908;28;20434;-91
2022/10/22 02:20:05;;;;;;;1.50;0.88;;;26.80;96.10;;;;;;4998820;28;20408;-89
2022/10/22 02:22:35;;;;;;;6.63;1.00;;;26.70;95.90;;;;;;4998824;28;20373;-89
2022/10/22 02:25:07;;;;;;;4.63;0.80;;;26.50;95.70;;;;;;4997742;28;20393;-87
2022/10/22 02:28:17;;;;;;;1.17;0.80;;;26.20;96.30;;;;;;5000073;28;20365;-87
2022/10/22 02:30:53;;;;;;;1.60;1.00;;;26.00;97.30;;;;;;4983094;28;20422;-89
2022/10/22 02:33:29;;;;;;;2.97;0.90;;;25.70;97.60;;;;;;4979489;28;20390;-87
2022/10/22 02:35:57;;;;;;;4.78;0.98;;;25.50;98.30;;;;;;4976522;28;20413;-89
2022/10/22 02:38:26;;;;;;;1.00;0.90;;;25.50;99.20;;;;;;4976839;28;20415;-88
2022/10/22 02:40:53;;;;;;;1.40;0.90;;;25.40;99.40;;;;;;4975622;28;20767;-86
2022/10/22 02:43:23;;;;;;;4.25;1.00;;;25.30;99.90;;;;;;4974954;28;20414;-83
2022/10/22 02:45:50;;;;;;;9.00;1.60;;;25.10;99.90;;;;;;4973955;28;20770;-85
2022/10/22 02:48:17;;;;;;;17.63;2.10;;;24.60;99.90;;;;;;4971722;28;20390;-91
2022/10/22 02:50:47;;;;;;;9.38;2.00;;;23.80;99.90;;;;;;4971011;28;20894;-93
2022/10/22 02:53:16;;;;;;;10.45;2.00;;;23.00;99.90;;;;;;4956364;28;20387;-90
2022/10/22 02:55:43;;;;;;;9.30;2.72;;;22.40;99.90;;;;;;4956264;28;20930;-91
2022/10/22 02:58:12;;;;;;;6.32;2.78;;;22.00;99.90;;;;;;4954567;28;20398;-88
2022/10/22 03:00:40;;;;;;;6.68;2.97;;;21.70;99.90;;;;;;4973497;28;20461;-91
2022/10/22 03:03:07;;;;;;;6.07;2.30;;;21.70;99.90;;;;;;4976041;28;20494;-86
2022/10/22 03:05:33;;;;;;;5.55;2.13;;;21.60;99.90;;;;;;4959867;28;20763;-90
2022/10/22 03:08:00;;;;;;;6.07;2.30;;;21.50;99.90;;;;;;5010005;28;20923;-90
2022/10/22 03:10:29;;;;;;;10.82;2.47;;;21.40;99.90;;;;;;4994727;28;20793;-95
2022/10/22 03:12:56;;;;;;;3.63;2.00;;;21.40;99.90;;;;;;4994481;28;20395;-94
2022/10/22 03:15:25;;;;;;;4.55;1.60;;;21.50;99.90;;;;;;4991583;28;20389;-91
2022/10/22 03:17:52;;;;;;;2.58;1.38;;;21.40;99.90;;;;;;5026614;28;20885;-92
2022/10/22 03:20:19;;;;;;;3.63;1.60;;;21.30;99.90;;;;;;4996052;28;20388;-91
2022/10/22 03:22:46;;;;;;;3.78;1.55;;;21.10;99.90;;;;;;4994719;28;20443;-93
2022/10/22 03:25:20;;;;;;;2.63;1.30;;;21.10;99.90;;;;;;4993405;28;20388;-91
2022/10/22 03:27:48;;;;;;;4.43;1.40;;;21.00;99.90;;;;;;4994896;28;20389;-89
2022/10/22 03:30:15;;;;;;;3.60;1.20;;;21.20;99.90;;;;;;4994752;28;20408;-92
2022/10/22 03:32:42;;;;;;;2.70;1.20;;;21.50;99.90;;;;;;5009840;28;20369;-93
2022/10/22 03:35:09;;;;;;;2.78;1.30;;;21.70;99.90;;;;;;4998066;28;20461;-90
2022/10/22 03:37:36;;;;;;;2.47;1.30;;;22.10;99.90;;;;;;4995459;28;20472;-91
2022/10/22 03:40:08;;;;;;;6.63;1.40;;;22.40;99.90;;;;;;4995636;28;20389;-87
2022/10/22 03:42:35;;;;;;;3.55;1.20;;;22.80;99.90;;;;;;4996122;28;20468;-89
2022/10/22 03:45:02;;;;;;;2.10;1.13;;;23.10;99.90;;;;;;4995368;28;20384;-92
2022/10/22 03:47:29;;;;;;;5.30;1.50;;;23.30;99.90;;;;;;4995486;28;20377;-89
2022/10/22 03:49:56;;;;;;;2.67;1.23;;;23.60;99.90;;;;;;4996193;28;20908;-91
2022/10/22 03:52:24;;;;;;;1.33;1.05;;;24.00;99.90;;;;;;4995190;28;20400;-93
2022/10/22 03:54:51;;;;;;;1.27;1.02;;;24.40;99.90;;;;;;4996217;28;20396;-90
2022/10/22 03:57:18;;;;;;;1.35;1.10;;;24.80;99.90;;;;;;4996198;28;20804;-93
2022/10/22 03:59:46;;;;;;;3.25;1.15;;;25.00;99.90;;;;;;4997099;28;20391;-89
2022/10/22 04:02:14;;;;;;;3.00;1.10;;;25.20;99.90;;;;;;4995145;28;20389;-93
2022/10/22 04:04:41;;;;;;;2.28;1.00;;;25.40;99.90;;;;;;4995000;28;20796;-89
2022/10/22 04:07:08;;;;;;;2.60;1.08;;;25.80;99.90;;;;;;4993625;28;20391;-87
2022/10/22 04:09:36;;;;;;;1.70;1.03;;;26.10;99.90;;;;;;4997104;28;20392;-87
2022/10/22 04:12:05;;;;;;;1.03;0.93;;;26.40;99.90;;;;;;4999772;28;20423;-87
2022/10/22 04:14:34;;;;;;;2.00;0.90;;;26.50;99.90;;;;;;5007007;28;20385;-90
2022/10/22 04:17:01;;;;;;;1.40;0.83;;;27.00;99.90;;;;;;5010621;28;20407;-88
2022/10/22 04:19:28;;;;;;;3.70;0.88;;;27.40;99.90;;;;;;5004582;28;20454;-90
2022/10/22 04:21:58;;;;;;;1.98;0.98;;;27.60;99.90;;;;;;5003411;28;20393;-91
2022/10/22 04:24:26;;;;;;;1.50;1.05;;;27.90;99.90;;;;;;5008067;28;20371;-89
2022/10/22 04:26:57;;;;;;;1.63;0.90;;;28.80;99.90;;;;;;4996674;28;20888;-89
2022/10/22 04:29:25;;;;;;;1.17;1.00;;;29.20;99.90;;;;;;4998891;28;20417;-96
2022/10/22 04:31:52;;;;;;;1.15;1.00;;;29.10;98.80;;;;;;4994342;28;20392;-91
2022/10/22 04:34:19;;;;;;;1.77;0.95;;;28.60;98.50;;;;;;4996360;28;20407;-90
2022/10/22 04:36:46;;;;;;;2.70;1.02;;;28.20;99.50;;;;;;4995920;28;20399;-91
2022/10/22 04:39:14;;;;;;;0.90;0.90;;;27.80;99.90;;;;;;4996470;28;20389;-92
2022/10/22 04:41:41;;;;;;;1.80;1.10;;;27.50;99.90;;;;;;4993991;28;20403;-89
2022/10/22 04:44:09;;;;;;;1.20;1.10;;;27.40;99.90;;;;;;5009697;28;20397;-88
2022/10/22 04:46:36;;;;;;;1.58;1.00;;;27.90;99.90;;;;;;5000687;28;20395;-92
2022/10/22 04:49:03;;;;;;;1.40;1.00;;;28.80;98.90;;;;;;5026585;28;20405;-88
2022/10/22 04:51:31;;;;;;;1.30;0.90;;;28.90;96.40;;;;;;4999446;28;20816;-92
2022/10/22 04:53:58;;;;;;;0.90;0.90;;;29.00;95.20;;;;;;4993812;28;20381;-94
2022/10/22 04:56:30;;;;;;;1.33;0.80;;;28.90;94.00;;;;;;4993816;28;20388;-91
2022/10/22 04:59:00;;;;;;;1.70;0.90;;;28.50;94.00;;;;;;5008312;28;20375;-88
2022/10/22 05:01:38;;;;;;;1.43;0.97;;;28.20;94.40;;;;;;4994246;28;20393;-94
2022/10/22 05:04:07;;;;;;;0.90;0.90;;;28.00;94.00;;;;;;4994583;28;20879;-93
2022/10/22 05:06:35;;;;;;;1.42;0.90;;;27.90;94.00;;;;;;5010120;28;20407;-90
2022/10/22 05:09:06;;;;;;;1.27;0.88;;;27.70;94.80;;;;;;4976861;28;20394;-91
2022/10/22 05:11:40;;;;;;;1.80;0.90;;;27.60;94.00;;;;;;5006386;28;20459;-91
2022/10/22 05:14:08;;;;;;;1.10;1.00;;;27.50;94.40;;;;;;4994945;28;20444;-90
2022/10/22 05:16:37;;;;;;;1.60;0.85;;;28.00;94.40;;;;;;4995683;28;20396;-90
2022/10/22 05:19:04;;;;;;;1.08;1.00;;;28.70;93.30;;;;;;4993420;28;20391;-90
2022/10/22 05:21:31;;;;;;;1.00;0.90;;;28.90;90.90;;;;;;4993296;28;20423;-87
2022/10/22 05:23:59;;;;;;;1.92;0.90;;;28.60;91.60;;;;;;4994290;28;20455;-93
2022/10/22 05:26:27;;;;;;;1.35;0.90;;;28.30;91.90;;;;;;4991309;28;20389;-91
2022/10/22 05:28:54;;;;;;;1.35;0.90;;;28.00;91.90;;;;;;4993254;28;20428;-90
2022/10/22 05:31:21;;;;;;;1.38;0.80;;;27.80;92.30;;;;;;4994424;28;20408;-92
2022/10/22 05:33:48;;;;;;;1.00;0.90;;;28.00;93.30;;;;;;4992124;28;20935;-92
2022/10/22 05:36:21;;;;;;;0.80;0.80;;;28.10;92.80;;;;;;5001540;28;20395;-88
2022/10/22 05:38:49;;;;;;;1.43;0.80;;;28.50;92.30;;;;;;5026858;28;20389;-87
2022/10/22 05:41:22;;;;;;;1.90;0.85;;;28.90;90.80;;;;;;5004043;28;20383;-92
2022/10/22 05:43:56;;;;;;;1.00;0.80;;;28.90;88.80;;;;;;5010058;28;20390;-89
2022/10/22 05:46:25;;;;;;;1.38;0.70;;;28.90;88.80;;;;;;5001607;28;20399;-89
2022/10/22 05:48:59;;;;;;;0.70;0.60;;;28.80;88.60;;;;;;4996039;28;20966;-89
2022/10/22 05:51:30;;;;;;;0.93;0.80;;;28.60;86.60;;;;;;4998346;28;20423;-88
2022/10/22 05:54:06;;;;;;;1.42;0.90;;;28.30;87.40;;;;;;5002122;28;20405;-88
2022/10/22 05:56:36;;;;;;;0.80;0.80;;;28.50;86.40;;;;;;5011054;28;20412;-90
2022/10/22 05:59:06;;;;;;;2.13;1.50;;;28.80;86.50;;;;;;5007577;28;20439;-84
2022/10/22 06:01:38;;;;;;;0.98;0.93;;;29.10;85.30;;;;;;5004073;28;20396;-88
2022/10/22 06:04:14;;;;;;;1.63;1.00;;;29.40;83.50;;;;;;5003546;28;20385;-89
2022/10/22 06:06:50;;;;;;;1.55;1.00;;;29.40;80.90;;;;;;5001927;28;20750;-86
2022/10/22 06:09:37;;;;;;;1.00;0.90;;;29.20;80.90;;;;;;5002633;28;20849;-89
2022/10/22 06:12:11;;;;;;;4.72;1.30;;;28.70;81.60;;;;;;5013042;28;20402;-87
2022/10/22 06:14:38;;;;;;;6.35;2.20;;;28.30;88.20;;;;;;5002131;28;20396;-86
2022/10/22 06:17:06;;;;;;;9.02;2.50;;;28.00;93.60;;;;;;5001731;28;20412;-83
2022/10/22 06:19:36;;;;;;;7.83;2.33;;;27.60;97.20;;;;;;4999426;28;20409;-87
2022/10/22 06:22:26;;;;;;;7.38;2.10;;;27.10;99.20;;;;;;4999872;28;20396;-85
2022/10/22 06:24:54;;;;;;;8.32;2.33;;;26.70;99.90;;;;;;5001657;28;20383;-91
2022/10/22 06:27:23;;;;;;;10.70;3.35;;;26.40;99.90;;;;;;5003666;28;20608;-92
2022/10/22 06:29:50;;;;;;;18.58;11.82;;;26.20;99.90;;;;;;5014600;28;20400;-90
2022/10/22 06:32:19;;;;;;;11.82;4.60;;;26.30;99.90;;;;;;5005067;28;20395;-88
2022/10/22 06:34:49;;;;;;;10.83;3.60;;;26.50;99.90;;;;;;5010031;28;20495;-91
2022/10/22 06:37:18;;;;;;;7.93;2.50;;;26.60;99.90;;;;;;5009401;28;20392;-92
2022/10/22 06:39:45;;;;;;;7.60;2.70;;;26.60;99.90;;;;;;5016224;28;20890;-88
2022/10/22 06:42:13;;;;;;;6.30;2.67;;;26.90;99.90;;;;;;5011527;28;20403;-91
2022/10/22 06:44:54;;;;;;;10.77;3.80;;;26.70;99.90;;;;;;5025679;28;20505;-86
2022/10/22 06:47:23;;;;;;;7.70;2.50;;;26.70;99.90;;;;;;5042862;28;20818;-90
2022/10/22 06:49:50;;;;;;;8.73;2.70;;;26.50;99.90;;;;;;5028522;28;20392;-89
2022/10/22 06:52:17;;;;;;;9.50;2.90;;;26.20;99.90;;;;;;5022930;28;20462;-91
2022/10/22 06:54:44;;;;;;;8.77;2.83;;;26.10;99.90;;;;;;5016888;28;20874;-89
2022/10/22 06:57:13;;;;;;;9.32;2.70;;;25.80;99.90;;;;;;5030869;28;20421;-92
2022/10/22 06:59:42;;;;;;;10.00;2.83;;;25.60;99.90;;;;;;5024586;28;20399;-89
2022/10/22 07:02:10;;;;;;;10.13;2.72;;;25.40;99.90;;;;;;5033144;28;20419;-86
2022/10/22 07:04:37;;;;;;;9.07;3.33;;;25.30;99.90;;;;;;5040172;28;20386;-83
2022/10/22 07:07:05;;;;;;;10.77;4.28;;;25.10;99.90;;;;;;5022143;28;20795;-81
2022/10/22 07:09:33;;;;;;;10.47;3.87;;;25.00;99.90;;;;;;5024250;28;20382;-84
2022/10/22 07:12:01;;;;;;;9.38;3.20;;;24.90;99.90;;;;;;5023184;28;20896;-86
2022/10/22 07:14:28;;;;;;;8.15;2.80;;;24.90;99.90;;;;;;5023146;28;20398;-84
2022/10/22 07:16:55;;;;;;;9.45;3.13;;;24.80;99.90;;;;;;5026277;28;20400;-83
2022/10/22 07:19:25;;;;;;;10.82;3.63;;;24.60;99.90;;;;;;5029012;28;20534;-84
2022/10/22 07:21:55;;;;;;;8.93;3.10;;;24.50;99.90;;;;;;5036523;28;20393;-84
2022/10/22 07:24:23;;;;;;;9.65;2.90;;;24.30;99.90;;;;;;5006352;28;20454;-89
2022/10/22 07:26:50;;;;;;;10.38;3.15;;;24.40;99.90;;;;;;5032486;28;20410;-85
2022/10/22 07:29:20;;;;;;;10.90;3.35;;;24.30;99.90;;;;;;5023854;28;20410;-85
2022/10/22 07:31:48;;;;;;;8.80;2.88;;;24.20;99.90;;;;;;5023383;28;20403;-82
2022/10/22 07:34:18;;;;;;;11.23;3.20;;;24.00;99.90;;;;;;5016733;28;20718;-83
2022/10/22 07:36:49;;;;;;;9.25;2.83;;;23.90;99.90;;;;;;5001885;28;20453;-82
2022/10/22 07:39:18;;;;;;;11.65;3.40;;;23.80;99.90;;;;;;5006280;28;20388;-83
2022/10/22 07:41:45;;;;;;;10.23;3.35;;;23.80;99.90;;;;;;5010036;28;20413;-80
2022/10/22 07:44:14;;;;;;;10.63;3.80;;;23.60;99.90;;;;;;5001457;28;20408;-82
2022/10/22 07:46:44;;;;;;;10.65;3.78;;;23.50;99.90;;;;;;5001464;28;20393;-82
2022/10/22 07:49:14;;;;;;;8.80;3.83;;;23.40;99.90;;;;;;5002007;28;20392;-84
2022/10/22 07:51:44;;;;;;;8.85;3.58;;;23.30;99.90;;;;;;5001211;28;21057;-86
2022/10/22 07:54:14;;;;;;;11.23;3.65;;;23.20;99.90;;;;;;5001107;28;20391;-84
2022/10/22 07:56:41;;;;;;;8.93;3.70;;;23.10;99.90;;;;;;4998835;28;20389;-82
2022/10/22 07:59:08;;;;;;;10.77;3.83;;;23.10;99.90;;;;;;4998210;28;20380;-85
2022/10/22 08:01:35;;;;;;;10.73;3.80;;;23.00;99.90;;;;;;5009612;28;20390;-81
2022/10/22 08:04:09;;;;;;;11.30;4.20;;;23.00;99.90;;;;;;5004659;28;20384;-84
2022/10/22 08:06:39;;;;;;;10.35;4.03;;;22.90;99.90;;;;;;4962878;28;20429;-81
2022/10/22 08:09:06;;;;;;;10.30;3.70;;;22.90;99.90;;;;;;4973587;28;20390;-86
2022/10/22 08:11:33;;;;;;;9.52;3.10;;;22.80;99.90;;;;;;4973728;28;20477;-81
2022/10/22 08:14:00;;;;;;;10.27;3.00;;;22.80;99.90;;;;;;4967161;28;20409;-81
2022/10/22 08:16:28;;;;;;;9.60;3.25;;;22.80;99.90;;;;;;4976549;28;20391;-81
2022/10/22 08:19:01;;;;;;;10.35;3.40;;;22.70;99.90;;;;;;4973391;28;20393;-81
2022/10/22 08:21:28;;;;;;;9.23;2.90;;;22.70;99.90;;;;;;4988011;28;20895;-84
2022/10/22 08:23:55;;;;;;;8.73;3.00;;;22.70;99.90;;;;;;4984054;28;20376;-84
2022/10/22 08:26:22;;;;;;;8.35;2.90;;;22.70;99.90;;;;;;4956536;28;20560;-80
2022/10/22 08:28:49;;;;;;;8.25;2.75;;;22.70;99.90;;;;;;4981087;28;20390;-81
2022/10/22 08:31:15;;;;;;;10.48;2.70;;;22.70;99.90;;;;;;4971944;28;20488;-79
2022/10/22 08:33:42;;;;;;;8.93;2.70;;;22.60;99.90;;;;;;4977156;28;20405;-81
2022/10/22 08:36:15;;;;;;;7.70;2.60;;;22.60;99.90;;;;;;4958670;28;20391;-82
2022/10/22 08:38:42;;;;;;;8.90;2.50;;;22.60;99.90;;;;;;4960791;28;20436;-81
2022/10/22 08:41:19;;;;;;;9.00;2.90;;;22.50;99.90;;;;;;4976631;28;20405;-78
2022/10/22 08:43:54;;;;;;;7.60;2.60;;;22.50;99.90;;;;;;4987514;28;20397;-82
2022/10/22 08:47:12;;;;;;;9.20;2.60;;;22.40;99.90;;;;;;4998270;28;20408;-80
2022/10/22 08:49:43;;;;;;;8.77;2.60;;;22.40;99.90;;;;;;4955711;29;20393;-82
2022/10/22 08:52:38;;;;;;;8.85;2.67;;;22.30;99.90;;;;;;4940191;28;20400;-81
2022/10/22 08:55:11;;;;;;;8.65;2.72;;;22.30;99.90;;;;;;4916746;29;20437;-82
2022/10/22 08:57:56;;;;;;;9.05;3.00;;;22.30;99.90;;;;;;4919408;29;20395;-83
2022/10/22 09:01:02;;;;;;;8.73;2.90;;;22.30;99.90;;;;;;4918749;29;20505;-81
2022/10/22 09:03:48;;;;;;;6.83;2.40;;;22.30;99.90;;;;;;4862332;29;20954;-80
2022/10/22 09:06:23;;;;;;;8.07;2.50;;;22.30;99.90;;;;;;4864001;29;20406;-83
2022/10/22 09:08:51;;;;;;;6.37;2.40;;;22.20;99.90;;;;;;4864543;29;20408;-82
2022/10/22 09:11:31;;;;;;;5.43;2.20;;;22.20;99.90;;;;;;4848656;29;20440;-80
2022/10/22 09:13:59;;;;;;;6.05;1.88;;;22.20;99.90;;;;;;4862188;29;20452;-79
2022/10/22 09:17:03;;;;;;;4.25;1.50;;;22.10;99.90;;;;;;4863187;29;20532;-79
2022/10/22 09:19:41;;;;;;;2.40;1.30;;;22.10;99.90;;;;;;4872489;29;20441;-80
2022/10/22 09:22:19;;;;;;;5.22;1.58;;;22.10;99.90;;;;;;4875560;29;20460;-78
2022/10/22 09:24:56;;;;;;;5.35;1.70;;;22.00;99.90;;;;;;4882909;29;20391;-79
2022/10/22 09:27:27;;;;;;;4.70;1.58;;;22.00;99.90;;;;;;4883817;29;20972;-80
2022/10/22 09:30:00;;;;;;;4.22;1.50;;;22.00;99.90;;;;;;4881054;29;20939;-80
2022/10/22 09:32:28;;;;;;;3.58;1.35;;;21.80;99.90;;;;;;4897798;29;20404;-81
2022/10/22 09:34:58;;;;;;;3.97;1.40;;;21.80;99.90;;;;;;4951122;29;20386;-80
2022/10/22 09:37:29;;;;;;;4.40;1.38;;;21.80;99.90;;;;;;4945922;29;20402;-79
2022/10/22 09:40:08;;;;;;;4.15;1.23;;;21.80;99.90;;;;;;4936771;29;20964;-79
2022/10/22 09:42:37;;;;;;;2.97;1.17;;;21.80;99.90;;;;;;4942664;29;20469;-78
2022/10/22 09:45:06;;;;;;;2.80;1.15;;;21.70;99.90;;;;;;4950200;29;20574;-80
2022/10/22 09:47:41;;;;;;;2.50;1.10;;;21.70;99.90;;;;;;4943532;29;20951;-79
2022/10/22 09:50:25;;;;;;;3.35;1.40;;;21.70;99.90;;;;;;4941125;29;20945;-81
2022/10/22 09:53:18;;;;;;;2.40;1.20;;;21.70;99.90;;;;;;4918699;28;20392;-80
2022/10/22 09:55:56;;;;;;;2.95;1.38;;;21.60;99.90;;;;;;4992592;28;20381;-81
2022/10/22 09:58:26;;;;;;;2.85;1.10;;;21.50;99.90;;;;;;4996298;28;20512;-80
2022/10/22 10:01:03;;;;;;;2.60;1.23;;;21.50;99.90;;;;;;4997949;28;20388;-80
2022/10/22 10:03:35;;;;;;;2.60;1.17;;;21.50;99.90;;;;;;5007679;28;20387;-77
2022/10/22 10:06:02;;;;;;;2.88;1.30;;;21.50;99.90;;;;;;5015665;28;20451;-79
2022/10/22 10:08:30;;;;;;;2.42;1.00;;;21.50;99.90;;;;;;4993759;28;20477;-81
2022/10/22 10:11:07;;;;;;;3.72;1.33;;;21.40;99.90;;;;;;4995734;28;20463;-80
2022/10/22 10:14:20;;;;;;;5.15;1.23;;;21.30;99.90;;;;;;5003262;28;20389;-78
2022/10/22 10:16:55;;;;;;;2.72;1.20;;;21.30;99.90;;;;;;4957786;28;20407;-85
2022/10/22 10:19:40;;;;;;;3.67;1.40;;;21.20;99.90;;;;;;4964149;28;20469;-79
2022/10/22 10:22:23;;;;;;;3.67;1.20;;;21.10;99.90;;;;;;4959011;28;20411;-82
2022/10/22 10:25:27;;;;;;;3.25;1.17;;;21.10;99.90;;;;;;4961685;28;20490;-81
2022/10/22 10:28:27;;;;;;;3.85;1.17;;;21.10;99.90;;;;;;4964092;28;20396;-79
2022/10/22 10:31:04;;;;;;;2.88;1.10;;;21.10;99.90;;;;;;4880061;29;20430;-81
2022/10/22 10:34:10;;;;;;;3.97;1.30;;;21.00;99.90;;;;;;4881557;29;20459;-81
2022/10/22 10:36:48;;;;;;;4.90;1.40;;;21.00;99.90;;;;;;4886136;29;20453;-81
2022/10/22 10:39:43;;;;;;;3.87;1.10;;;21.00;99.90;;;;;;4887152;29;20446;-80
2022/10/22 10:42:50;;;;;;;2.83;1.23;;;20.90;99.90;;;;;;4889253;29;20525;-80
2022/10/22 10:45:27;;;;;;;4.70;1.45;;;20.90;99.90;;;;;;4872173;29;20958;-81
2022/10/22 10:48:02;;;;;;;3.80;1.30;;;20.90;99.90;;;;;;4877806;29;20421;-81
2022/10/22 10:50:32;;;;;;;3.70;1.27;;;20.90;99.90;;;;;;4899080;29;20959;-80
2022/10/22 10:53:21;;;;;;;2.55;1.30;;;20.90;99.90;;;;;;4925921;29;20397;-81
2022/10/22 10:56:22;;;;;;;3.40;1.40;;;20.90;99.90;;;;;;4947671;29;20397;-81
2022/10/22 10:59:08;;;;;;;3.70;1.30;;;20.90;99.90;;;;;;4917827;29;20407;-79
2022/10/22 11:01:53;;;;;;;2.80;0.90;;;20.90;99.90;;;;;;4919537;29;20486;-81
2022/10/22 11:04:53;;;;;;;2.92;1.38;;;20.90;99.90;;;;;;4919700;29;20391;-80
2022/10/22 11:07:34;;;;;;;2.75;1.20;;;20.80;99.90;;;;;;4935106;29;20403;-81
2022/10/22 11:10:29;;;;;;;3.20;1.27;;;20.80;99.90;;;;;;4965276;28;20466;-81
2022/10/22 11:13:28;;;;;;;3.50;1.25;;;20.80;99.90;;;;;;4965298;28;20402;-81
2022/10/22 11:16:36;;;;;;;3.23;1.10;;;20.80;99.90;;;;;;4971140;28;20476;-80
2022/10/22 11:19:27;;;;;;;3.28;1.23;;;20.70;99.90;;;;;;4972202;28;20802;-80
2022/10/22 11:22:04;;;;;;;4.85;1.60;;;20.70;99.90;;;;;;4980936;28;20427;-81
2022/10/22 11:25:13;;;;;;;5.00;1.70;;;20.60;99.90;;;;;;4984111;28;20389;-82
2022/10/22 11:28:10;;;;;;;5.53;2.38;;;20.70;99.90;;;;;;4964410;28;20392;-81
2022/10/22 11:30:44;;;;;;;7.28;2.55;;;20.60;99.90;;;;;;4947190;29;20495;-81
2022/10/22 11:33:18;;;;;;;6.93;2.80;;;20.60;99.90;;;;;;4957711;29;20865;-80
2022/10/22 11:35:46;;;;;;;5.03;2.10;;;20.60;99.90;;;;;;4964580;28;20392;-81
2022/10/22 11:38:22;;;;;;;5.30;2.10;;;20.60;99.90;;;;;;4965462;28;20412;-83
2022/10/22 11:40:59;;;;;;;6.33;2.50;;;20.50;99.90;;;;;;4965806;29;20392;-83
2022/10/22 11:43:51;;;;;;;5.82;2.20;;;20.50;99.90;;;;;;4960901;29;20473;-80
2022/10/22 11:46:21;;;;;;;4.28;1.85;;;20.40;99.90;;;;;;4952730;29;20416;-83
2022/10/22 11:49:08;;;;;;;4.73;1.70;;;20.30;99.90;;;;;;4968181;28;20532;-81
2022/10/22 11:51:41;;;;;;;4.88;1.90;;;20.30;99.90;;;;;;4962472;29;20420;-82
2022/10/22 11:54:26;;;;;;;4.05;1.67;;;20.30;99.90;;;;;;4965091;29;20381;-81
2022/10/22 11:57:36;;;;;;;3.67;1.70;;;20.30;99.90;;;;;;4966216;29;20429;-81
2022/10/22 12:00:40;;;;;;;5.10;1.40;;;20.40;99.90;;;;;;4947193;28;20460;-84
2022/10/22 12:03:38;;;;;;;4.85;1.30;;;20.40;99.90;;;;;;4954154;28;20394;-82
2022/10/22 12:06:11;;;;;;;5.38;1.30;;;20.40;99.90;;;;;;4978938;28;20397;-80
2022/10/22 12:09:06;;;;;;;5.27;1.53;;;20.40;99.90;;;;;;4965020;28;20456;-80
2022/10/22 12:11:48;;;;;;;3.47;1.70;;;20.30;99.90;;;;;;4964145;29;20522;-83
2022/10/22 12:14:33;;;;;;;4.95;1.98;;;20.20;99.90;;;;;;4964109;29;20388;-83
2022/10/22 12:17:21;;;;;;;6.53;2.30;;;20.20;99.90;;;;;;4961991;29;20920;-85
2022/10/22 12:20:12;;;;;;;4.57;2.00;;;20.10;99.90;;;;;;4949553;28;20384;-82
2022/10/22 12:22:39;;;;;;;3.78;1.33;;;20.10;99.90;;;;;;4913154;29;20410;-81
2022/10/22 12:25:20;;;;;;;3.78;1.38;;;20.00;99.90;;;;;;4925237;29;20876;-80
2022/10/22 12:28:01;;;;;;;4.35;1.63;;;20.00;99.90;;;;;;4922007;29;20453;-85
2022/10/22 12:30:37;;;;;;;3.83;1.30;;;19.90;99.90;;;;;;4924905;29;20428;-82
2022/10/22 12:33:07;;;;;;;3.42;1.25;;;19.90;99.90;;;;;;4922308;29;20983;-84
2022/10/22 12:36:02;;;;;;;4.47;1.30;;;19.80;99.90;;;;;;4917430;29;20430;-82
2022/10/22 12:38:45;;;;;;;3.70;1.20;;;19.80;99.90;;;;;;4885995;29;20418;-81
2022/10/22 12:41:13;;;;;;;5.20;1.30;;;19.80;99.90;;;;;;4908031;29;20407;-80
2022/10/22 12:43:40;;;;;;;3.45;1.10;;;19.70;99.90;;;;;;4925193;29;20368;-81
2022/10/22 12:46:16;;;;;;;4.30;1.30;;;19.70;99.90;;;;;;4922092;29;20435;-84
2022/10/22 12:48:50;;;;;;;4.30;1.43;;;21.10;99.90;;;;;;4918494;29;20366;-81
2022/10/22 12:51:22;;;;;;;5.53;1.38;;;19.70;99.90;;;;;;4921023;29;20397;-83
2022/10/22 12:53:54;;;;;;;3.42;1.33;;;19.80;99.90;;;;;;4901384;29;20902;-81
2022/10/22 12:56:27;;;;;;;4.05;1.45;;;19.70;99.90;;;;;;4912380;29;20396;-81
2022/10/22 12:59:14;;;;;;;4.05;1.50;;;19.70;99.90;;;;;;4897061;29;20746;-81
2022/10/22 13:01:43;;;;;;;4.88;1.20;;;19.70;99.90;;;;;;4953225;28;20428;-82
2022/10/22 13:04:20;;;;;;;3.20;1.38;;;19.70;99.90;;;;;;4951909;28;20471;-81
2022/10/22 13:07:02;;;;;;;3.87;1.50;;;19.70;99.90;;;;;;4953878;28;20466;-85
2022/10/22 13:09:39;;;;;;;3.70;1.50;;;19.70;99.90;;;;;;4957661;28;20411;-83
2022/10/22 13:12:09;;;;;;;6.30;1.80;;;19.70;99.90;;;;;;4957787;28;20856;-83
2022/10/22 13:14:38;;;;;;;5.53;1.70;;;19.60;99.90;;;;;;4958098;28;20387;-84
2022/10/22 13:17:18;;;;;;;3.78;1.70;;;19.60;99.90;;;;;;4954165;28;20400;-79
2022/10/22 13:19:53;;;;;;;4.18;1.50;;;19.60;99.90;;;;;;4954990;28;20436;-84
2022/10/22 13:22:36;;;;;;;5.47;1.77;;;19.60;99.90;;;;;;4956325;28;20395;-82
2022/10/22 13:25:16;;;;;;;4.63;1.60;;;19.60;99.90;;;;;;4970306;28;20378;-84